Dolton, Illinois
Current Conditions -  °F | °C
As of 4:35 AM on Tuesday 27 Jan 2015 (Local Time) from KIGQ Reporting Station
Overcast Overcast  
Wind Chill: 25°   Ceiling: 800
Heat Index: 25°   Visibility: 7mi
Dew Point: 23°   Wind: 3mph
Humidity: 92%   Direction: 100°E
Pressure: 30"   Gusts: NA
Location:  41.64°N, 87.61°W
Report Text: KIGQ 271035Z AUTO 10003KT 7SM OVC008 M04/M05 A3000 RMK AO2 T10401051
Loading
Personal Weather Stations






























Interactive Weather Map New forecast layout! Learn more

10-Day Weather Forecast

Advertisements
Track Severe Weather on mobile